EGPD

Aberdeen Dyce Airport

Aberdeen, United Kingdom
METAR EGPD 171350Z 18010KT 9999 SCT012 05/03 Q1010
Observed Flight Rules
Dec-17 @ 13:50 UTC (39 minutes ago) Visual Flight Rules
Wind Visibility Clouds
180° at 10 knots 10,000+ meters
  • Scattered at 1,200' AGL
Temperatures Readings
Current 5°C / 41°F
Dewpoint 3°C / 37°F
Humidity 87%
Altimeter 29.82" Hg
Pressure 1010 hPa
Elevation 65
METAR EGPD 171350Z 18010KT 9999 SCT012 05/03 Q1010
Observed Flight Rules
Dec-17 @ 13:50 UTC
(39 minutes ago)
VFR
Wind Visibility
180° at 10 knots 10,000+ meters
Clouds
  • Scattered at 1,200' AGL
Temperature Dewpoint
5°C / 41°F 3°C / 37°F
Humidity Altimeter Pressure
87% 29.82" Hg 1010 hPa